Date,TemperatureHighF,TemperatureAvgF,TemperatureLowF,DewpointHighF,DewpointAvgF,DewpointLowF,HumidityHigh,HumidityAvg,HumidityLow,PressureMaxIn,PressureMinIn,WindSpeedMaxMPH,WindSpeedAvgMPH,GustSpeedMaxMPH,PrecipitationSumIn
2013-1-1,68,56,47,67,53,43,98,91,83,30.15,29.85,12,5,16,0.33
2013-1-2,46,44,43,42,39,36,86,82,76,30.26,30.13,10,4,14,0.01
2013-1-3,53,47,40,38,35,32,80,65,45,30.36,30.24,11,3,15,0.00
2013-1-4,50,48,47,38,37,34,71,66,58,30.45,30.31,7,2,13,0.00
2013-1-5,48,46,44,46,44,38,95,90,69,30.33,30.20,5,1,10,0.48
2013-1-6,59,49,42,46,43,40,97,81,55,30.32,30.20,8,2,14,0.00
2013-1-7,60,49,38,48,43,36,94,81,63,30.27,30.05,4,1,7,0.01
2013-1-8,64,58,52,63,57,47,98,94,77,30.05,29.83,4,1,13,0.27
2013-1-9,67,65,62,66,64,61,98,96,91,30.02,29.80,8,2,19,1.45
2013-1-10,70,62,54,62,55,49,98,80,50,30.06,29.93,5,1,12,0.07
2013-1-11,72,61,47,65,56,46,98,87,64,30.01,29.83,8,1,16,0.01
2013-1-12,75,73,65,71,70,65,99,93,87,29.84,29.66,13,4,21,0.02
2013-1-13,72,49,43,70,44,38,96,83,70,30.08,29.72,15,6,21,0.15
2013-1-14,46,44,40,41,40,38,93,85,74,30.18,30.03,11,4,14,0.01
2013-1-15,44,40,38,40,37,35,95,90,84,30.13,29.99,13,4,16,0.06
2013-1-16,51,43,36,35,29,21,89,63,31,30.26,30.11,11,5,17,0.01
2013-1-17,63,47,32,40,33,27,94,63,32,30.42,30.24,7,1,12,0.00
2013-1-18,65,51,40,44,39,36,88,67,41,30.48,30.33,5,1,11,0.00
2013-1-19,71,54,40,54,46,37,95,78,40,30.33,30.14,7,1,11,0.00
2013-1-20,74,58,46,58,51,46,99,81,45,30.23,30.07,4,0,10,0.01
2013-1-21,74,58,47,57,52,46,98,80,51,30.20,30.09,3,0,8,0.01
2013-1-22,74,59,48,55,51,46,95,76,49,30.28,30.16,8,1,11,0.00
2013-1-23,76,63,50,62,57,49,98,83,56,30.30,30.18,6,1,13,0.01
2013-1-24,81,68,60,67,62,59,99,84,54,30.25,30.09,12,2,14,0.01
2013-1-25,80,69,62,66,63,61,98,83,55,30.14,30.02,8,2,16,0.00
2013-1-26,80,69,62,67,62,60,98,82,53,30.14,30.04,7,1,14,0.00
2013-1-27,78,69,61,68,65,60,96,88,69,30.09,29.98,11,2,22,0.00
2013-1-28,81,73,70,69,67,64,92,82,58,30.05,29.90,11,4,19,0.00
2013-1-29,77,73,60,71,69,56,92,87,78,29.91,29.55,17,6,31,0.15
2013-1-30,62,56,44,56,34,26,82,45,31,30.20,29.71,19,6,28,0.01
2013-1-31,69,54,37,38,34,26,90,53,20,30.28,30.16,6,1,13,0.00
2013-2-1,73,59,48,49,43,38,82,59,29,30.32,30.19,15,1,16,0.00
2013-2-2,78,63,50,58,53,48,96,72,40,30.21,30.12,5,0,11,0.00
2013-2-3,74,62,54,54,44,31,92,57,23,30.28,30.02,5,1,9,0.00
2013-2-4,73,64,58,66,60,51,96,86,72,30.01,29.78,9,1,15,0.07
2013-2-5,81,70,64,68,66,63,98,88,62,29.94,29.82,7,1,15,0.01
2013-2-6,67,65,61,66,63,59,98,94,90,29.98,29.80,7,1,13,0.39
2013-2-7,72,64,57,64,61,56,98,90,77,29.95,29.85,3,0,9,0.00
2013-2-8,72,62,54,63,53,51,96,73,50,30.13,29.95,8,3,13,0.00
2013-2-9,71,63,55,68,59,52,93,86,73,30.07,29.81,8,2,18,0.00
2013-2-10,74,67,59,71,60,51,94,80,61,29.92,29.70,17,4,24,0.12
2013-2-11,64,58,54,54,52,44,96,81,51,30.01,29.91,9,2,13,0.09
2013-2-12,63,59,55,61,56,52,98,92,78,29.93,29.77,10,2,13,0.03
2013-2-13,62,54,46,51,42,39,81,65,46,30.08,29.95,10,4,20,0.00
2013-2-14,70,54,39,45,40,34,95,64,29,30.13,30.00,3,0,10,0.00
2013-2-15,69,55,43,49,42,35,92,65,34,30.29,30.05,11,3,18,0.00
2013-2-16,62,51,39,38,30,24,74,48,28,30.40,30.22,8,2,13,0.00
2013-2-17,73,59,44,54,46,39,93,64,34,30.22,30.00,18,3,18,0.00
2013-2-18,75,67,57,68,61,53,93,81,70,30.03,29.80,16,4,20,0.47
2013-2-19,71,60,52,53,42,35,81,53,28,30.20,30.03,6,2,11,0.00
2013-2-20,63,58,54,63,51,35,98,78,44,30.07,29.73,10,3,15,0.10
2013-2-21,78,70,60,72,61,47,98,78,43,29.80,29.63,16,4,24,0.08
2013-2-22,66,61,56,52,48,40,75,62,45,29.95,29.80,12,3,12,0.00
2013-2-23,70,59,50,52,47,45,84,66,46,29.96,29.84,8,2,11,0.00
2013-2-24,70,60,48,60,52,43,95,76,58,29.90,29.62,10,1,14,0.00
2013-2-25,75,63,50,67,45,18,98,60,12,29.75,29.49,28,5,30,0.01
2013-2-26,65,54,45,40,35,34,66,50,32,29.89,29.75,13,4,19,0.00
2013-2-27,70,58,49,52,40,30,86,54,32,30.12,29.86,18,4,21,0.00
2013-2-28,59,50,44,34,30,27,61,48,34,30.25,30.12,12,4,16,0.00
2013-3-1,66,53,40,37,31,25,80,47,22,30.26,30.10,11,2,15,0.00
2013-3-2,57,49,41,35,28,21,73,47,26,30.33,30.21,19,5,26,0.00
2013-3-3,72,54,37,51,37,26,83,57,30,30.25,29.97,10,2,16,0.00
2013-3-4,79,68,56,63,58,51,87,74,51,29.96,29.74,21,6,30,0.00
2013-3-5,69,63,52,64,42,26,87,51,23,30.27,29.77,15,7,23,0.00
2013-3-6,70,55,44,43,28,21,69,38,17,30.38,30.18,10,2,12,0.00
2013-3-7,73,58,45,52,46,41,88,68,38,30.23,30.13,9,2,15,0.00
2013-3-8,72,63,55,62,58,52,95,83,65,30.16,30.02,11,2,16,0.00
2013-3-9,76,69,63,66,63,60,93,83,69,30.02,29.72,15,4,25,0.00
2013-3-10,68,63,55,66,54,38,95,74,44,30.02,29.68,14,5,19,0.33
2013-3-11,62,54,48,39,30,19,68,43,19,30.09,29.96,14,4,22,0.00
2013-3-12,77,58,41,46,36,31,81,50,19,30.20,30.04,4,1,11,0.00
2013-3-13,75,60,46,48,43,36,89,58,27,30.40,30.20,6,1,12,0.00
2013-3-14,78,62,47,53,48,45,97,65,31,30.37,30.23,11,2,15,0.00
2013-3-15,81,65,52,61,54,49,94,71,38,30.23,30.02,15,2,22,0.00
2013-3-16,82,69,58,63,60,57,94,75,47,30.02,29.80,15,3,24,0.00
2013-3-17,84,71,62,68,64,61,97,82,55,29.83,29.64,13,3,19,0.00
2013-3-18,93,78,68,69,65,60,96,69,38,29.84,29.66,8,2,14,0.00
2013-3-19,80,71,64,66,60,52,87,70,54,29.94,29.84,9,2,14,0.00
2013-3-20,77,66,57,64,51,37,92,65,27,30.14,29.89,10,3,21,0.37
2013-3-21,74,64,55,63,56,49,93,76,46,30.00,29.67,12,2,23,0.00
2013-3-22,82,74,66,71,68,63,93,82,65,29.70,29.61,11,2,16,0.00
2013-3-23,75,70,65,70,67,61,95,90,80,29.69,29.54,9,1,9,0.00
2013-3-24,68,58,50,66,41,29,95,58,32,30.10,29.59,22,7,28,0.00
2013-3-25,62,52,43,33,26,20,65,40,21,30.33,30.10,10,3,14,0.00
2013-3-26,65,54,42,33,25,21,56,34,19,30.45,30.27,10,2,14,0.00
2013-3-27,72,58,41,51,42,31,83,58,33,30.32,30.17,11,2,16,0.00
2013-3-28,73,65,58,60,56,51,89,75,62,30.21,30.13,13,2,16,0.00
2013-3-29,79,68,59,64,61,57,94,80,55,30.17,30.06,8,2,16,0.00
2013-3-30,82,71,64,66,64,61,93,78,52,30.10,29.91,10,2,13,0.00
2013-3-31,86,71,64,68,66,62,94,84,52,29.93,29.80,10,2,22,0.32
2013-4-1,84,70,61,68,64,60,97,82,55,30.02,29.89,5,1,14,0.01
2013-4-2,73,68,63,68,65,62,97,91,82,29.96,29.78,10,2,18,1.32
2013-4-3,66,60,54,63,57,52,96,90,79,30.04,29.78,16,4,16,0.16
2013-4-4,57,53,51,52,47,44,94,81,70,30.15,29.99,12,5,21,0.00
2013-4-5,75,60,46,52,48,43,91,65,42,30.22,30.05,7,2,13,0.00
2013-4-6,77,66,55,61,57,51,90,74,54,30.08,29.90,10,3,17,0.00
2013-4-7,81,72,61,65,63,59,93,74,55,29.94,29.80,10,3,19,0.00
2013-4-8,82,72,65,69,66,64,97,84,61,29.83,29.71,13,3,22,0.00
2013-4-9,84,75,69,73,70,67,92,84,68,29.75,29.64,16,6,23,0.00
2013-4-10,80,64,49,73,60,47,96,89,77,29.81,29.66,10,5,25,0.28
2013-4-11,70,55,44,49,45,42,95,72,40,29.92,29.75,11,4,17,1.05
2013-4-12,83,64,48,57,48,44,93,63,27,29.97,29.83,8,1,9,0.00
2013-4-13,79,66,53,60,56,52,96,72,44,29.93,29.77,9,1,15,0.00
2013-4-14,88,70,59,71,65,57,98,83,54,29.78,29.62,9,2,16,0.00
2013-4-15,82,75,69,72,70,68,94,85,71,29.80,29.70,11,2,14,0.00
2013-4-16,83,76,71,73,72,70,95,86,68,29.89,29.79,10,2,21,0.00
2013-4-17,77,74,73,74,72,72,96,94,89,29.89,29.71,9,3,18,0.03
2013-4-18,77,66,55,73,62,45,95,87,69,29.99,29.66,12,5,19,0.10
2013-4-19,67,57,49,45,36,29,73,48,25,30.20,29.99,16,5,19,0.00
2013-4-20,72,58,42,48,42,36,83,58,35,30.21,30.04,8,2,16,0.00
2013-4-21,78,65,54,58,54,49,87,70,50,30.12,30.01,6,1,10,0.00
2013-4-22,85,69,56,64,60,54,96,75,45,30.08,29.90,13,1,16,0.00
2013-4-23,83,72,62,70,65,59,96,82,61,29.94,29.83,10,2,17,0.00
2013-4-24,72,60,49,58,48,45,91,67,44,30.16,29.94,15,6,19,0.05
2013-4-25,78,66,59,60,50,43,77,57,31,30.26,30.13,8,2,13,0.00
2013-4-26,83,74,67,70,67,60,94,81,64,30.16,30.03,11,3,19,0.00
2013-4-27,80,70,64,72,68,63,98,93,77,30.07,29.90,12,2,29,5.56
2013-4-28,82,72,64,68,65,62,96,79,56,30.00,29.84,21,2,27,0.24
2013-4-29,86,72,66,70,68,65,97,86,56,29.89,29.78,6,1,13,0.03
2013-4-30,86,75,67,69,67,65,97,80,53,29.80,29.69,11,1,15,0.00
2013-5-1,90,77,68,70,68,66,96,76,48,29.84,29.75,5,1,12,0.00
2013-5-2,77,67,51,70,60,43,95,79,66,30.15,29.83,16,6,25,0.00
2013-5-3,68,56,48,43,37,30,78,53,26,30.16,30.02,15,7,24,0.00
2013-5-4,81,65,48,53,45,39,88,52,25,30.05,29.82,8,2,14,0.00
2013-5-5,73,64,55,54,47,42,75,55,39,30.06,29.92,10,3,15,0.00
2013-5-6,79,66,52,58,52,45,87,62,43,30.08,29.94,5,1,10,0.00
2013-5-7,88,73,59,62,58,56,92,62,35,30.03,29.91,8,1,13,0.00
2013-5-8,86,73,63,67,64,60,94,74,42,30.02,29.91,10,2,17,0.00
2013-5-9,80,75,68,74,70,66,92,87,79,29.95,29.80,12,2,17,0.00
2013-5-10,82,73,66,73,69,65,97,88,67,30.00,29.77,7,1,19,2.86
2013-5-11,86,75,65,71,65,55,97,74,49,30.04,29.89,7,2,13,0.01
2013-5-12,84,75,66,63,58,53,78,58,36,30.13,30.02,6,2,10,0.00
2013-5-13,85,73,60,61,58,54,85,62,38,30.23,30.12,8,1,9,0.00
2013-5-14,85,73,64,69,66,61,97,80,56,30.18,30.05,9,2,15,0.01
2013-5-15,80,72,69,72,69,66,96,88,72,30.09,29.87,13,2,18,0.15
2013-5-16,85,77,70,74,71,68,94,83,67,29.90,29.76,12,3,18,0.00
2013-5-17,90,80,72,77,73,70,95,81,65,29.89,29.79,9,2,19,0.00
2013-5-18,93,81,74,75,73,71,94,77,52,29.91,29.84,15,3,17,0.00
2013-5-19,90,81,75,75,73,71,90,77,54,29.86,29.76,11,3,22,0.00
2013-5-20,90,82,77,76,74,73,89,79,60,29.84,29.72,13,3,18,0.00
2013-5-21,90,82,77,75,74,73,91,79,59,29.82,29.67,12,3,17,0.00
2013-5-22,96,82,75,79,75,71,92,80,57,29.87,29.75,5,1,12,0.11
2013-5-23,91,81,74,77,75,73,97,82,60,30.01,29.84,5,1,12,0.01
2013-5-24,90,81,76,76,74,73,96,81,58,30.07,29.96,10,2,16,0.00
2013-5-25,85,79,74,76,74,72,96,85,68,30.10,30.00,11,1,15,0.00
2013-5-26,91,81,75,75,73,69,95,78,51,30.05,29.96,8,2,16,0.00
2013-5-27,91,80,72,75,72,69,94,77,58,29.99,29.87,10,3,17,0.00
2013-5-28,89,80,74,75,72,70,91,79,58,29.91,29.81,16,4,18,0.00
2013-5-29,86,80,76,76,74,72,91,82,68,29.84,29.75,11,3,19,0.00
2013-5-30,88,81,76,78,76,74,93,83,70,29.83,29.75,11,3,26,0.00
2013-5-31,93,84,78,77,76,74,94,79,57,29.85,29.77,11,2,19,0.00
2013-6-1,95,85,77,77,76,75,94,77,54,29.85,29.78,9,3,17,0.00
2013-6-2,84,77,70,76,72,68,96,86,65,30.00,29.83,8,2,20,0.23
2013-6-3,96,81,69,71,68,63,95,68,35,29.91,29.77,8,2,10,0.00
2013-6-4,96,82,70,74,71,68,96,71,42,29.87,29.76,7,1,12,0.00
2013-6-5,97,84,73,76,74,72,97,75,47,29.84,29.70,8,1,12,0.00
2013-6-6,98,84,74,76,74,70,95,74,46,29.83,29.67,17,1,22,0.28
2013-6-7,90,78,70,70,67,60,94,71,45,29.89,29.80,7,2,12,0.00
2013-6-8,93,81,71,74,69,62,84,68,51,29.88,29.77,7,1,14,0.00
2013-6-9,90,77,71,78,73,70,96,88,67,29.90,29.80,22,1,22,0.50
2013-6-10,97,81,70,79,74,70,99,82,49,29.94,29.88,7,1,14,0.11
2013-6-11,95,84,76,80,76,74,96,79,54,29.99,29.92,7,1,15,0.01
2013-6-12,95,84,77,79,76,73,94,79,57,30.01,29.91,6,1,11,0.00
2013-6-13,101,86,77,80,77,74,95,76,43,30.01,29.86,5,1,14,0.00
2013-6-14,100,87,76,79,76,71,97,73,40,29.93,29.82,7,1,11,0.00
2013-6-15,98,85,78,78,76,74,93,74,47,29.95,29.84,6,1,10,0.00
2013-6-16,98,86,76,78,75,72,95,74,45,29.98,29.87,8,1,11,0.00
2013-6-17,97,86,77,77,76,73,94,73,47,29.95,29.82,8,2,14,0.00
2013-6-18,96,84,77,77,75,72,93,76,49,29.94,29.81,7,2,12,0.04
2013-6-19,101,85,75,77,74,69,95,73,37,29.95,29.86,7,1,13,0.00
2013-6-20,97,86,78,78,75,71,92,72,46,30.02,29.92,10,2,16,0.00
2013-6-21,98,85,77,78,75,71,94,74,41,30.05,29.95,9,2,15,0.00
2013-6-22,98,86,77,78,74,70,93,71,43,30.01,29.89,9,2,14,0.00
2013-6-23,95,85,77,77,75,72,92,73,47,29.97,29.88,10,2,15,0.00
2013-6-24,98,86,78,77,74,71,90,70,43,30.01,29.91,8,2,17,0.00
2013-6-25,98,87,78,79,75,72,92,71,43,29.98,29.88,9,2,16,0.00
2013-6-26,100,87,78,78,75,73,90,70,42,29.95,29.86,10,2,14,0.00
2013-6-27,102,87,77,76,74,70,92,69,36,29.98,29.86,8,2,17,0.00
2013-6-28,103,88,77,77,73,65,94,67,31,29.94,29.75,8,2,13,0.00
2013-6-29,106,90,78,79,73,64,90,62,27,29.81,29.64,9,2,15,0.00
2013-6-30,98,89,78,76,66,56,84,50,28,29.82,29.71,11,2,14,0.00
2013-7-1,93,85,76,63,60,57,59,44,33,29.90,29.79,9,2,14,0.00
2013-7-2,96,83,72,70,63,55,88,54,26,29.96,29.86,6,2,12,0.32
2013-7-3,99,83,70,70,66,58,93,62,25,29.97,29.84,5,1,11,0.00
2013-7-4,97,84,72,72,69,65,86,63,35,29.94,29.84,4,1,12,0.00
2013-7-5,98,86,72,75,70,64,92,64,33,29.92,29.80,7,1,12,0.00
2013-7-6,97,85,76,76,73,68,90,71,39,29.88,29.79,10,1,14,0.00
2013-7-7,91,83,77,77,75,72,94,78,56,29.95,29.85,9,2,17,0.00
2013-7-8,91,81,75,77,75,73,94,83,60,30.10,29.95,5,1,11,0.42
2013-7-9,99,86,76,79,76,72,96,74,42,30.09,29.99,9,1,17,0.00
2013-7-10,99,87,76,78,75,74,95,71,45,30.04,29.89,7,2,15,0.00
2013-7-11,102,86,77,77,74,69,93,71,35,29.96,29.84,5,1,13,0.00
2013-7-12,99,86,78,77,75,72,91,71,44,29.93,29.82,7,1,11,0.00
2013-7-13,102,87,76,77,73,68,92,66,35,29.93,29.77,5,1,13,0.00
2013-7-14,94,84,75,76,74,71,94,72,51,29.89,29.80,6,1,13,0.04
2013-7-15,88,78,75,77,74,72,95,89,68,29.98,29.85,3,0,11,0.68
2013-7-16,90,80,75,77,74,72,95,83,60,30.05,29.96,5,1,13,0.07
2013-7-17,85,79,76,77,75,74,96,89,74,30.10,30.03,4,0,13,0.20
2013-7-18,96,84,75,77,72,64,96,71,37,30.09,29.94,5,1,12,0.01
2013-7-19,97,81,75,77,74,70,95,81,43,30.01,29.88,8,1,9,0.06
2013-7-20,94,82,76,79,75,72,95,82,55,29.93,29.82,6,1,17,0.01
2013-7-21,89,81,75,78,76,73,96,86,65,29.96,29.86,11,2,16,0.33
2013-7-22,97,86,79,79,77,74,95,77,50,29.97,29.89,10,2,23,0.00
2013-7-23,97,85,78,78,76,73,95,76,48,29.98,29.87,10,2,16,0.00
2013-7-24,99,86,77,77,75,72,93,73,46,29.96,29.82,8,2,15,0.00
2013-7-25,102,86,77,78,75,69,93,73,36,29.99,29.90,8,2,14,0.00
2013-7-26,98,86,78,79,76,72,95,74,45,29.99,29.85,9,2,15,0.00
2013-7-27,97,85,79,79,77,75,96,77,49,29.91,29.79,7,1,14,0.16
2013-7-28,96,86,80,79,76,72,92,75,50,29.92,29.84,6,1,17,0.00
2013-7-29,99,86,78,78,74,67,94,71,36,30.03,29.91,7,2,16,0.00
2013-7-30,100,86,77,78,74,67,93,71,35,30.07,29.97,8,2,16,0.00
2013-7-31,103,86,74,77,75,71,95,71,36,30.05,29.88,9,1,14,0.00
2013-8-1,103,87,78,78,75,71,94,72,37,29.99,29.86,5,1,11,0.00
2013-8-2,99,87,78,78,76,72,94,72,42,29.96,29.86,10,1,14,0.00
2013-8-3,100,87,78,78,76,74,92,72,44,30.00,29.91,7,2,14,0.00
2013-8-4,99,86,79,81,78,75,94,76,47,30.04,29.93,8,2,16,0.17
2013-8-5,101,87,79,79,76,72,93,73,41,30.02,29.88,10,2,15,0.00
2013-8-6,100,87,80,79,76,72,93,73,41,29.93,29.82,9,3,15,0.00
2013-8-7,102,88,79,79,75,67,93,70,32,29.91,29.78,9,2,15,0.00
2013-8-8,102,86,78,78,76,73,94,73,40,29.89,29.77,6,2,15,0.00
2013-8-9,103,87,76,79,76,74,95,72,40,29.92,29.81,8,1,13,0.00
2013-8-10,93,85,79,81,78,74,94,79,58,29.99,29.89,6,1,11,0.04
2013-8-11,94,86,78,78,76,73,94,74,52,30.00,29.93,9,1,13,0.00
2013-8-12,98,86,78,78,76,73,91,74,45,30.02,29.91,10,1,15,0.00
2013-8-13,82,81,81,77,77,77,86,86,85,29.96,29.96,0,0,4,0.00
2013-9-25,98,90,79,73,64,59,75,45,29,29.82,29.73,7,1,9,0.00
2013-9-26,95,82,70,75,69,60,96,68,32,29.86,29.77,6,1,13,0.00
2013-9-27,89,81,74,79,75,70,92,81,68,29.89,29.82,8,2,15,0.02
2013-9-28,89,81,77,81,77,75,95,89,73,29.93,29.85,8,2,16,0.57
2013-9-29,86,80,77,78,76,74,95,87,70,29.93,29.85,8,1,13,0.07
2013-9-30,90,79,74,77,75,73,95,87,63,29.86,29.76,3,1,8,0.20
2013-10-1,90,80,75,77,74,71,96,84,58,29.90,29.80,6,1,18,0.00
2013-10-2,86,79,75,78,75,72,96,87,71,29.93,29.85,9,1,15,0.01
2013-10-3,92,81,74,78,75,72,98,82,57,29.91,29.82,9,1,12,0.01
2013-10-4,93,82,72,76,74,70,96,79,52,29.89,29.82,9,1,15,0.00
2013-10-5,94,82,69,78,72,62,98,74,47,29.91,29.79,10,2,15,0.00
2013-10-6,79,67,57,62,52,44,90,61,30,30.07,29.91,9,4,16,0.19
2013-10-7,82,68,55,56,47,43,82,51,26,30.10,29.98,7,1,12,0.00
2013-10-8,86,70,54,62,54,48,91,63,28,30.05,29.94,4,0,6,0.00
2013-10-9,88,73,59,65,62,57,94,71,43,30.03,29.93,4,1,10,0.00
2013-10-10,90,76,63,70,65,61,94,73,43,30.01,29.89,5,1,11,0.00
2013-10-11,90,79,70,76,72,67,92,80,61,29.92,29.83,7,2,14,0.00
2013-10-12,89,77,73,80,75,71,98,93,69,30.00,29.87,7,1,19,0.91
2013-10-13,76,74,73,75,73,72,98,96,93,30.10,29.98,4,1,7,0.24
2013-10-14,85,79,73,76,73,70,98,80,63,30.05,29.92,10,1,17,0.00
2013-10-15,90,79,71,75,72,70,97,81,58,29.94,29.83,9,1,12,0.00
2013-10-16,74,68,63,71,66,61,95,92,83,29.98,29.85,8,3,12,0.03
2013-10-17,79,68,60,61,58,56,95,74,49,30.04,29.92,6,2,13,0.03
2013-10-18,75,67,61,65,61,55,94,80,67,29.96,29.84,7,1,13,0.04
2013-10-19,71,64,54,64,54,45,97,75,40,30.08,29.91,10,3,15,0.98
2013-10-20,79,64,48,62,54,46,94,72,41,30.05,29.90,5,1,9,0.00
2013-10-21,80,70,64,69,65,61,94,83,65,29.95,29.86,5,0,10,0.00
2013-10-22,76,67,58,65,59,50,94,77,43,30.06,29.92,12,3,12,0.00
2013-10-23,85,67,52,57,53,49,95,65,31,30.12,30.03,2,0,6,0.00
2013-10-24,87,71,55,60,56,52,94,64,31,30.18,30.07,2,0,9,0.00
2013-10-25,79,67,57,61,58,55,95,76,52,30.30,30.17,7,1,9,0.00
2013-10-26,82,70,58,67,61,55,90,75,54,30.21,30.05,9,1,11,0.00
2013-10-27,76,68,61,70,65,59,98,91,78,30.07,29.95,17,1,25,1.25
2013-10-28,86,73,64,74,68,62,97,85,64,30.07,29.97,7,1,15,0.01
2013-10-29,85,76,70,73,70,68,94,83,63,30.07,29.98,12,2,14,0.00
2013-10-30,82,78,73,78,75,71,96,91,83,30.01,29.81,10,3,17,0.45
2013-10-31,79,71,59,76,69,57,98,92,73,29.85,29.73,11,2,18,3.07
2013-11-1,82,68,54,66,59,53,98,77,42,29.93,29.78,8,1,10,0.03
2013-11-2,73,64,55,56,47,37,81,56,27,30.18,29.93,13,4,18,0.00
2013-11-3,72,59,46,55,50,43,90,72,51,30.17,30.04,4,1,12,0.00
2013-11-4,70,65,56,68,62,51,97,91,82,30.05,29.95,6,0,12,0.13
2013-11-5,80,74,70,72,69,67,95,86,70,30.00,29.91,13,1,17,0.00
2013-11-6,80,70,56,75,65,47,98,86,67,30.22,29.94,10,3,17,0.01
2013-11-7,66,58,48,46,41,39,75,57,39,30.36,30.21,9,4,16,0.00
2013-11-8,68,59,51,47,43,38,77,58,35,30.32,30.14,6,1,12,0.00
2013-11-9,72,63,56,60,54,46,90,72,60,30.17,30.09,4,0,8,0.00
2013-11-10,75,64,59,58,52,47,89,66,38,30.25,30.14,6,1,9,0.00
2013-11-11,78,64,54,57,54,52,92,73,46,30.21,30.10,3,0,8,0.00
2013-11-12,72,59,50,58,53,44,92,80,57,30.51,30.17,16,4,19,0.00
2013-11-13,57,47,38,43,31,26,77,56,32,30.57,30.36,12,3,16,0.00
2013-11-14,66,53,42,54,44,34,84,73,58,30.36,30.02,5,0,13,0.00
2013-11-15,82,67,55,68,61,50,96,82,56,30.02,29.86,5,0,10,0.00
2013-11-16,82,72,63,75,70,63,99,92,75,29.91,29.75,9,2,16,0.01
2013-11-17,85,78,72,75,73,70,96,86,68,29.89,29.77,8,2,18,0.00
2013-11-18,79,73,66,73,64,47,98,76,44,30.06,29.89,6,1,11,0.00
2013-11-19,72,64,57,53,48,43,80,58,49,30.09,29.98,9,1,12,0.00
2013-11-20,73,65,57,68,58,45,96,77,65,29.99,29.88,10,2,15,0.02
2013-11-21,80,74,69,77,72,68,96,94,82,30.04,29.92,9,2,14,0.28
2013-11-22,74,56,44,73,55,42,98,95,90,30.25,30.01,14,5,19,1.26
2013-11-23,50,46,43,47,44,41,97,92,79,30.34,30.23,12,5,21,0.16
2013-11-24,50,46,44,41,35,32,79,65,54,30.38,30.26,12,4,15,0.01
2013-11-25,45,42,40,43,40,37,97,92,74,30.25,29.94,11,4,16,1.45
2013-11-26,45,42,40,41,40,38,96,91,82,30.25,30.00,14,5,19,0.39
2013-11-27,50,42,36,38,32,28,88,69,43,30.42,30.25,9,3,14,0.00
2013-11-28,58,45,33,45,39,31,94,81,60,30.44,30.34,4,0,6,0.00
2013-11-29,65,51,40,44,40,35,91,69,41,30.47,30.35,3,0,7,0.00
2013-11-30,74,57,43,57,50,40,95,79,54,30.37,30.18,7,0,7,0.00
2013-12-1,73,62,53,63,59,52,97,87,70,30.18,29.92,8,1,11,0.00
2013-12-2,78,67,61,66,63,60,97,87,65,29.91,29.66,6,2,13,0.01
2013-12-3,81,69,61,69,65,60,97,87,63,29.70,29.59,9,2,16,0.01
2013-12-4,82,74,69,72,70,68,96,88,69,29.78,29.67,8,2,15,0.00
2013-12-5,74,58,39,73,55,37,97,91,80,30.00,29.76,12,4,18,0.00
2013-12-6,43,39,36,39,37,32,96,90,84,30.32,29.94,16,6,18,0.01
2013-12-7,38,36,34,36,33,31,95,89,85,30.37,30.24,11,4,15,0.00
2013-12-8,49,44,37,45,40,36,95,87,78,30.23,30.02,4,1,7,0.00
2013-12-9,48,46,41,47,45,39,96,95,92,30.26,30.02,10,3,16,0.09
2013-12-10,49,41,34,39,32,30,93,73,49,30.42,30.26,13,4,20,0.01
2013-12-11,53,47,38,42,39,33,81,73,61,30.47,30.30,7,1,10,0.00
2013-12-12,55,47,40,40,37,35,85,69,47,30.52,30.33,9,1,10,0.00
2013-12-13,59,53,45,58,48,39,97,86,77,30.32,29.82,4,0,11,0.03
2013-12-14,59,51,42,55,47,34,98,86,73,30.25,29.83,15,5,23,0.01
2013-12-15,57,44,34,38,34,31,90,71,40,30.36,30.25,12,2,13,0.00
2013-12-16,67,49,34,42,37,32,97,70,33,30.32,30.20,5,0,7,0.00
2013-12-17,73,53,38,52,44,36,96,74,34,30.31,30.20,3,0,5,0.00
2013-12-18,72,56,41,58,50,40,99,83,56,30.28,30.08,8,1,12,0.00
2013-12-19,77,66,55,68,62,53,95,87,70,30.07,29.84,11,2,21,0.02
2013-12-20,76,72,68,72,70,67,95,92,86,29.87,29.69,12,3,20,0.01
2013-12-21,75,68,56,72,65,54,98,92,84,29.80,29.55,12,3,24,0.42
2013-12-22,59,52,40,58,45,-100,98,81,64,30.30,29.75,15,-17,17,0.04
2013-12-23,55,43,35,35,33,31,87,70,41,30.50,30.30,8,2,14,0.00
2013-12-24,60,45,32,38,34,29,94,68,32,30.52,30.29,3,0,9,0.00
2013-12-25,60,52,41,51,46,37,90,80,69,30.32,30.24,5,0,8,0.00
2013-12-26,64,55,49,51,48,43,97,79,51,30.36,30.26,5,1,8,0.00
2013-12-27,60,54,51,48,43,39,84,68,51,30.38,30.28,6,1,9,0.00
2013-12-28,62,52,45,40,37,31,83,58,33,30.28,30.01,2,0,6,0.00
2013-12-29,70,55,40,50,43,38,96,68,36,30.13,29.96,6,1,12,0.00
2013-12-30,48,43,39,43,36,34,82,76,71,30.36,30.13,12,4,13,0.00
2013-12-31,51,46,41,41,36,33,77,68,59,30.42,30.25,4,1,10,0.00
2014-1-1,68,49,48,59,28,-100,94,71,71,30.25,29.99,4,-168,8,0.00
2014-1-2,60,48,39,59,35,25,97,64,39,30.42,30.03,16,6,22,0.00